createdAt,value
2018-04-11T00:01:55.844Z,6.20
2018-04-11T00:04:28.561Z,6.20
2018-04-11T00:07:20.709Z,6.20
2018-04-11T00:10:02.337Z,6.20
2018-04-11T00:12:30.420Z,6.20
2018-04-11T00:14:59.826Z,6.20
2018-04-11T00:17:39.514Z,6.20
2018-04-11T00:20:07.593Z,6.20
2018-04-11T00:25:30.984Z,6.20
2018-04-11T00:28:06.814Z,6.10
2018-04-11T00:30:34.927Z,6.20
2018-04-11T00:33:06.150Z,6.20
2018-04-11T00:35:38.081Z,6.20
2018-04-11T00:38:26.789Z,6.20
2018-04-11T00:40:54.911Z,6.20
2018-04-11T00:43:33.700Z,6.20
2018-04-11T00:46:03.541Z,6.20
2018-04-11T00:48:55.554Z,6.20
2018-04-11T00:51:23.662Z,6.20
2018-04-11T00:53:51.771Z,6.20
2018-04-11T00:56:24.266Z,6.20
2018-04-11T00:58:55.460Z,6.20
2018-04-11T01:01:27.659Z,6.20
2018-04-11T01:04:13.613Z,6.10
2018-04-11T01:06:58.074Z,6.10
2018-04-11T01:09:37.807Z,6.10
2018-04-11T01:12:16.926Z,6.10
2018-04-11T01:14:49.275Z,6.10
2018-04-11T01:17:17.318Z,6.10
2018-04-11T01:19:46.330Z,6.10
2018-04-11T01:22:14.440Z,6.10
2018-04-11T01:24:44.424Z,6.10
2018-04-11T01:27:13.438Z,6.10
2018-04-11T01:29:42.764Z,6.20
2018-04-11T01:32:10.833Z,6.20
2018-04-11T01:37:44.799Z,6.20
2018-04-11T01:40:30.937Z,6.30
2018-04-11T01:42:59.029Z,6.30
2018-04-11T01:45:41.050Z,6.20
2018-04-11T01:48:09.970Z,6.20
2018-04-11T01:50:38.053Z,6.20
2018-04-11T01:53:06.906Z,6.20
2018-04-11T01:55:58.581Z,6.20
2018-04-11T01:58:29.180Z,6.20
2018-04-11T02:00:57.284Z,6.20
2018-04-11T02:03:29.791Z,6.20
2018-04-11T02:06:23.191Z,6.20
2018-04-11T02:08:51.309Z,6.20
2018-04-11T02:11:19.398Z,6.20
2018-04-11T02:13:54.198Z,6.20
2018-04-11T02:16:24.090Z,6.20
2018-04-11T02:19:06.726Z,6.20
2018-04-11T02:21:34.835Z,6.10
2018-04-11T02:24:13.481Z,6.10
2018-04-11T02:26:43.309Z,6.10
2018-04-11T02:29:13.138Z,6.30
2018-04-11T02:31:41.469Z,6.20
2018-04-11T02:34:13.731Z,6.30
2018-04-11T02:39:42.455Z,6.40
2018-04-11T02:42:22.601Z,6.40
2018-04-11T02:44:55.038Z,6.40
2018-04-11T02:47:24.131Z,6.40
2018-04-11T02:49:58.027Z,6.40
2018-04-11T02:52:46.063Z,6.40
2018-04-11T02:55:20.450Z,6.40
2018-04-11T02:57:48.542Z,6.40
2018-04-11T03:00:18.616Z,6.50
2018-04-11T03:02:46.764Z,6.50
2018-04-11T03:05:15.817Z,6.50
2018-04-11T03:07:43.949Z,6.50
2018-04-11T03:10:13.069Z,6.60
2018-04-11T03:12:44.793Z,6.60
2018-04-11T03:15:12.886Z,6.70
2018-04-11T03:17:41.042Z,6.70
2018-04-11T03:20:10.066Z,6.70
2018-04-11T03:22:38.150Z,6.60
2018-04-11T03:25:07.184Z,6.50
2018-04-11T03:27:38.719Z,6.40
2018-04-11T03:30:06.834Z,6.40
2018-04-11T03:32:34.954Z,6.40
2018-04-11T03:38:02.889Z,6.40
2018-04-11T03:40:50.191Z,6.40
2018-04-11T03:43:30.176Z,6.40
2018-04-11T03:46:07.245Z,6.40
2018-04-11T03:48:35.368Z,6.40
2018-04-11T03:51:04.761Z,6.40
2018-04-11T03:53:32.854Z,6.40
2018-04-11T03:56:01.727Z,6.40
2018-04-11T03:58:41.255Z,6.40
2018-04-11T04:04:09.248Z,6.40
2018-04-11T04:06:38.229Z,6.40
2018-04-11T04:09:30.170Z,6.40
2018-04-11T04:12:05.921Z,6.40
2018-04-11T04:14:50.159Z,6.40
2018-04-11T04:17:31.049Z,6.30
2018-04-11T04:20:10.869Z,6.30
2018-04-11T04:22:39.006Z,6.30
2018-04-11T04:25:13.598Z,6.30
2018-04-11T04:27:55.671Z,6.30
2018-04-11T04:30:29.118Z,6.30
2018-04-11T04:33:02.651Z,6.40
2018-04-11T04:35:38.153Z,6.40
2018-04-11T04:38:24.306Z,6.40
2018-04-11T04:40:54.349Z,6.40
2018-04-11T04:43:36.521Z,6.30
2018-04-11T04:46:08.069Z,6.30
2018-04-11T04:48:54.809Z,6.20
2018-04-11T04:51:30.395Z,6.20
2018-04-11T04:53:58.518Z,6.20
2018-04-11T04:56:27.430Z,6.20
2018-04-11T04:58:55.650Z,6.20
2018-04-11T05:01:25.817Z,6.30
2018-04-11T05:03:57.903Z,6.30
2018-04-11T05:06:37.525Z,6.40
2018-04-11T05:09:05.853Z,6.40
2018-04-11T05:11:34.027Z,6.50
2018-04-11T05:14:02.129Z,6.50
2018-04-11T05:16:30.247Z,6.50
2018-04-11T05:19:01.054Z,6.50
2018-04-11T05:21:36.521Z,6.50
2018-04-11T05:24:04.602Z,6.50
2018-04-11T05:26:34.795Z,6.50
2018-04-11T05:29:05.000Z,6.50
2018-04-11T05:31:35.888Z,6.50
2018-04-11T05:34:04.210Z,6.50
2018-04-11T05:36:32.397Z,6.50
2018-04-11T05:39:07.338Z,6.50
2018-04-11T05:41:35.601Z,6.50
2018-04-11T05:44:03.745Z,6.60
2018-04-11T05:46:37.845Z,6.60
2018-04-11T05:49:19.609Z,6.60
2018-04-11T05:51:51.443Z,6.70
2018-04-11T05:54:19.623Z,6.70
2018-04-11T05:56:52.511Z,6.70
2018-04-11T05:59:22.556Z,6.70
2018-04-11T06:01:54.920Z,6.80
2018-04-11T06:04:28.066Z,6.70
2018-04-11T06:06:58.150Z,6.80
2018-04-11T06:09:26.345Z,6.80
2018-04-11T06:14:53.978Z,6.80
2018-04-11T06:17:23.598Z,6.90
2018-04-11T06:19:57.157Z,6.90
2018-04-11T06:22:27.306Z,6.80
2018-04-11T06:24:58.991Z,6.80
2018-04-11T06:27:29.107Z,6.80
2018-04-11T06:30:01.697Z,6.80
2018-04-11T06:32:30.768Z,6.90
2018-04-11T06:35:00.919Z,6.90
2018-04-11T06:37:59.327Z,7.00
2018-04-11T06:43:42.605Z,7.00
2018-04-11T06:46:11.730Z,7.00
2018-04-11T06:48:40.789Z,7.10
2018-04-11T06:51:09.818Z,7.20
2018-04-11T06:53:40.046Z,7.10
2018-04-11T06:56:14.568Z,7.20
2018-04-11T06:58:44.841Z,7.20
2018-04-11T07:01:14.907Z,7.30
2018-04-11T07:03:45.563Z,7.30
2018-04-11T07:06:13.752Z,7.40
2018-04-11T07:08:41.965Z,7.50
2018-04-11T07:11:10.040Z,7.60
2018-04-11T07:13:40.359Z,7.70
2018-04-11T07:16:08.622Z,7.70
2018-04-11T07:18:37.117Z,7.80
2018-04-11T07:21:10.436Z,7.90
2018-04-11T07:23:39.772Z,8.00
2018-04-11T07:26:11.913Z,8.10
2018-04-11T07:28:41.937Z,8.00
2018-04-11T07:31:10.067Z,8.10
2018-04-11T07:33:38.506Z,8.30
2018-04-11T07:36:07.530Z,8.30
2018-04-11T07:38:36.078Z,8.30
2018-04-11T07:41:04.181Z,8.10
2018-04-11T07:43:33.070Z,8.00
2018-04-11T07:46:01.269Z,8.00
2018-04-11T07:48:30.236Z,8.00
2018-04-11T07:50:58.343Z,8.00
2018-04-11T07:53:26.466Z,8.10
2018-04-11T07:55:54.577Z,8.00
2018-04-11T07:58:22.688Z,8.20
2018-04-11T08:00:50.904Z,8.30
2018-04-11T08:03:19.892Z,8.40
2018-04-11T08:05:47.959Z,8.40
2018-04-11T08:08:16.074Z,8.60
2018-04-11T08:10:45.136Z,8.90
2018-04-11T08:13:13.243Z,9.00
2018-04-11T08:15:42.019Z,9.10
2018-04-11T08:18:10.171Z,9.20
2018-04-11T08:20:38.299Z,9.30
2018-04-11T08:23:06.482Z,9.30
2018-04-11T08:25:34.627Z,9.40
2018-04-11T08:28:03.781Z,9.40
2018-04-11T08:30:32.007Z,9.50
2018-04-11T08:33:01.896Z,9.80
2018-04-11T08:35:31.001Z,9.80
2018-04-11T08:37:59.197Z,9.90
2018-04-11T08:40:27.321Z,9.90
2018-04-11T08:42:55.666Z,9.80
2018-04-11T08:45:23.873Z,9.90
2018-04-11T08:47:54.027Z,10.00
2018-04-11T08:50:22.262Z,9.90
2018-04-11T08:52:50.390Z,10.00
2018-04-11T08:55:22.702Z,10.10
2018-04-11T08:57:51.885Z,10.10
2018-04-11T09:00:20.866Z,10.30
2018-04-11T09:02:49.646Z,10.30
2018-04-11T09:05:18.331Z,10.40
2018-04-11T09:07:47.445Z,10.60
2018-04-11T09:10:15.583Z,10.70
2018-04-11T09:12:43.731Z,10.60
2018-04-11T09:15:12.720Z,10.90
2018-04-11T09:17:42.814Z,10.90
2018-04-11T09:20:11.023Z,11.10
2018-04-11T09:22:40.143Z,11.20
2018-04-11T09:25:08.290Z,10.90
2018-04-11T09:27:36.450Z,10.80
2018-04-11T09:30:05.603Z,11.00
2018-04-11T09:32:34.636Z,10.60
2018-04-11T09:35:02.842Z,10.60
2018-04-11T09:37:31.254Z,10.50
2018-04-11T09:40:03.720Z,10.50
2018-04-11T09:42:32.613Z,10.50
2018-04-11T09:45:01.761Z,10.90
2018-04-11T09:47:30.008Z,10.80
2018-04-11T09:49:58.241Z,10.50
2018-04-11T09:52:26.481Z,10.40
2018-04-11T09:54:55.236Z,10.30
2018-04-11T09:57:23.387Z,10.40
2018-04-11T09:59:51.510Z,10.30
2018-04-11T10:02:25.501Z,10.30
2018-04-11T10:04:54.221Z,10.50
2018-04-11T10:07:22.483Z,10.70
2018-04-11T10:09:50.630Z,10.70
2018-04-11T10:12:19.820Z,10.60
2018-04-11T10:14:47.952Z,10.70
2018-04-11T10:17:17.236Z,10.30
2018-04-11T10:19:46.311Z,10.10
2018-04-11T10:22:14.785Z,10.00
2018-04-11T10:24:44.643Z,9.60
2018-04-11T10:27:12.788Z,9.60
2018-04-11T10:29:41.801Z,9.70
2018-04-11T10:32:11.895Z,9.60
2018-04-11T10:34:40.011Z,9.50
2018-04-11T10:37:08.883Z,9.60
2018-04-11T10:39:37.097Z,9.60
2018-04-11T10:42:05.303Z,10.00
2018-04-11T10:44:33.534Z,10.30
2018-04-11T10:47:01.835Z,10.10
2018-04-11T10:49:30.957Z,10.00
2018-04-11T10:51:59.551Z,9.80
2018-04-11T10:54:27.732Z,9.70
2018-04-11T10:56:55.840Z,9.70
2018-04-11T10:59:23.987Z,9.80
2018-04-11T11:01:52.120Z,9.80
2018-04-11T11:04:20.326Z,9.80
2018-04-11T11:06:48.439Z,9.90
2018-04-11T11:09:16.672Z,9.80
2018-04-11T11:11:44.763Z,10.00
2018-04-11T11:14:15.719Z,10.10
2018-04-11T11:16:43.884Z,10.10
2018-04-11T11:19:12.925Z,10.10
2018-04-11T11:21:41.286Z,10.20
2018-04-11T11:24:10.187Z,10.10
2018-04-11T11:26:39.058Z,9.60
2018-04-11T11:29:07.232Z,9.60
2018-04-11T11:31:35.362Z,9.80
2018-04-11T11:34:03.584Z,9.90
2018-04-11T11:36:31.723Z,9.90
2018-04-11T11:38:59.904Z,9.70
2018-04-11T11:41:28.111Z,9.70
2018-04-11T11:43:57.040Z,9.50
2018-04-11T11:46:25.355Z,9.50
2018-04-11T11:48:55.427Z,9.50
2018-04-11T11:51:24.292Z,9.90
2018-04-11T11:53:56.044Z,9.80
2018-04-11T11:56:25.359Z,9.90
2018-04-11T11:58:54.326Z,10.20
2018-04-11T12:01:23.339Z,10.20
2018-04-11T12:03:51.461Z,10.20
2018-04-11T12:06:19.595Z,10.30
2018-04-11T12:08:48.436Z,10.20
2018-04-11T12:11:19.109Z,10.20
2018-04-11T12:13:48.155Z,10.20
2018-04-11T12:16:16.380Z,9.90
2018-04-11T12:18:48.035Z,9.80
2018-04-11T12:21:16.158Z,10.20
2018-04-11T12:23:44.297Z,10.10
2018-04-11T12:26:12.424Z,10.10
2018-04-11T12:28:40.572Z,9.90
2018-04-11T12:31:08.685Z,9.90
2018-04-11T12:33:36.822Z,10.20
2018-04-11T12:36:05.714Z,10.10
2018-04-11T12:38:33.799Z,10.10
2018-04-11T12:41:02.730Z,10.30
2018-04-11T12:43:31.303Z,10.20
2018-04-11T12:45:59.451Z,10.00
2018-04-11T12:48:27.586Z,10.00
2018-04-11T12:50:55.734Z,9.70
2018-04-11T12:53:24.606Z,9.50
2018-04-11T12:55:53.071Z,9.50
2018-04-11T12:58:21.182Z,9.50
2018-04-11T13:00:51.181Z,9.40
2018-04-11T13:03:20.210Z,9.20
2018-04-11T13:05:48.415Z,8.90
2018-04-11T13:08:16.479Z,8.90
2018-04-11T13:10:44.620Z,9.00
2018-04-11T13:13:12.717Z,8.90
2018-04-11T13:15:41.815Z,8.90
2018-04-11T13:18:11.972Z,9.30
2018-04-11T13:20:45.522Z,9.10
2018-04-11T13:23:15.634Z,9.10
2018-04-11T13:25:43.811Z,8.90
2018-04-11T13:28:11.890Z,9.00
2018-04-11T13:30:46.142Z,8.90
2018-04-11T13:33:17.018Z,9.00
2018-04-11T13:35:45.249Z,9.00
2018-04-11T13:38:13.381Z,8.90
2018-04-11T13:40:42.456Z,9.00
2018-04-11T13:43:12.479Z,8.90
2018-04-11T13:45:44.305Z,8.70
2018-04-11T13:48:13.216Z,8.90
2018-04-11T13:50:49.611Z,9.30
2018-04-11T13:53:19.713Z,9.20
2018-04-11T13:56:06.752Z,9.30
2018-04-11T13:58:35.662Z,9.50
2018-04-11T14:01:07.322Z,9.50
2018-04-11T14:03:38.147Z,9.40
2018-04-11T14:06:06.313Z,9.40
2018-04-11T14:08:34.418Z,9.20
2018-04-11T14:11:05.394Z,9.30
2018-04-11T14:13:43.545Z,8.80
2018-04-11T14:16:12.739Z,8.80
2018-04-11T14:18:47.106Z,8.90
2018-04-11T14:21:18.268Z,8.90
2018-04-11T14:23:47.946Z,9.00
2018-04-11T14:26:19.724Z,9.10
2018-04-11T14:28:48.635Z,9.40
2018-04-11T14:31:28.354Z,9.50
2018-04-11T14:33:57.362Z,9.60
2018-04-11T14:36:26.302Z,9.20
2018-04-11T14:38:54.434Z,9.20
2018-04-11T14:41:24.550Z,9.10
2018-04-11T14:43:53.726Z,9.20
2018-04-11T14:46:26.007Z,9.50
2018-04-11T14:48:54.101Z,9.40
2018-04-11T14:51:28.460Z,9.40
2018-04-11T14:53:58.511Z,9.20
2018-04-11T14:56:27.572Z,9.20
2018-04-11T14:58:57.121Z,9.20
2018-04-11T15:01:25.238Z,9.30
2018-04-11T15:03:53.514Z,9.20
2018-04-11T15:06:21.841Z,9.20
2018-04-11T15:08:50.560Z,9.10
2018-04-11T15:11:20.602Z,9.20
2018-04-11T15:13:55.062Z,9.20
2018-04-11T15:16:24.906Z,9.00
2018-04-11T15:18:53.318Z,9.00
2018-04-11T15:21:21.520Z,8.90
2018-04-11T15:23:49.627Z,8.90
2018-04-11T15:26:22.795Z,9.00
2018-04-11T15:28:52.154Z,9.00
2018-04-11T15:31:24.493Z,9.00
2018-04-11T15:33:53.643Z,8.90
2018-04-11T15:36:21.800Z,8.80
2018-04-11T15:38:50.742Z,8.80
2018-04-11T15:41:18.854Z,8.80
2018-04-11T15:43:55.458Z,8.90
2018-04-11T15:46:40.608Z,9.20
2018-04-11T15:49:08.788Z,9.30
2018-04-11T15:51:38.008Z,9.30
2018-04-11T15:54:12.363Z,9.10
2018-04-11T15:56:41.511Z,8.90
2018-04-11T15:59:12.140Z,8.70
2018-04-11T16:01:42.403Z,8.80
2018-04-11T16:04:12.601Z,8.70
2018-04-11T16:06:44.191Z,8.60
2018-04-11T16:09:12.449Z,8.50
2018-04-11T16:11:41.589Z,8.50
2018-04-11T16:14:09.717Z,8.40
2018-04-11T16:16:37.860Z,8.30
2018-04-11T16:19:05.985Z,8.40
2018-04-11T16:21:34.151Z,8.40
2018-04-11T16:24:06.102Z,8.30
2018-04-11T16:26:34.249Z,8.10
2018-04-11T16:29:02.364Z,8.10
2018-04-11T16:31:50.360Z,8.10
2018-04-11T16:34:23.476Z,8.00
2018-04-11T16:36:53.379Z,8.10
2018-04-11T16:39:28.315Z,8.10
2018-04-11T16:41:56.591Z,8.10
2018-04-11T16:44:24.842Z,8.20
2018-04-11T16:46:53.029Z,8.30
2018-04-11T16:49:21.119Z,8.30
2018-04-11T16:51:49.246Z,8.30
2018-04-11T16:54:28.176Z,8.50
2018-04-11T16:56:58.323Z,8.40
2018-04-11T16:59:37.988Z,8.30
2018-04-11T17:02:10.771Z,8.30
2018-04-11T17:04:39.803Z,8.30
2018-04-11T17:07:13.905Z,8.20
2018-04-11T17:09:42.048Z,8.20
2018-04-11T17:12:13.890Z,8.00
2018-04-11T17:14:42.049Z,7.80
2018-04-11T17:17:12.200Z,7.90
2018-04-11T17:19:41.055Z,7.70
2018-04-11T17:22:20.868Z,7.70
2018-04-11T17:25:01.938Z,7.70
2018-04-11T17:27:45.589Z,7.70
2018-04-11T17:30:26.168Z,7.60
2018-04-11T17:32:54.330Z,7.60
2018-04-11T17:35:22.546Z,7.60
2018-04-11T17:37:51.669Z,7.60
2018-04-11T17:40:19.813Z,7.60
2018-04-11T17:42:48.966Z,7.50
2018-04-11T17:45:22.962Z,7.40
2018-04-11T17:47:52.094Z,7.40
2018-04-11T17:50:20.300Z,7.40
2018-04-11T17:52:52.288Z,7.40
2018-04-11T17:55:20.462Z,7.30
2018-04-11T17:57:54.817Z,7.40
2018-04-11T18:00:23.072Z,7.30
2018-04-11T18:02:52.135Z,7.30
2018-04-11T18:05:23.278Z,7.30
2018-04-11T18:07:56.977Z,7.30
2018-04-11T18:10:25.068Z,7.30
2018-04-11T18:12:53.210Z,7.20
2018-04-11T18:15:29.321Z,7.20
2018-04-11T18:17:57.544Z,7.20
2018-04-11T18:20:26.432Z,7.10
2018-04-11T18:22:56.601Z,7.10
2018-04-11T18:25:28.179Z,7.10
2018-04-11T18:28:02.625Z,7.10
2018-04-11T18:30:30.781Z,7.10
2018-04-11T18:32:58.947Z,7.10
2018-04-11T18:35:29.749Z,7.00
2018-04-11T18:37:57.944Z,7.00
2018-04-11T18:40:27.964Z,7.00
2018-04-11T18:42:58.100Z,7.00
2018-04-11T18:45:31.228Z,7.00
2018-04-11T18:48:07.534Z,7.00
2018-04-11T18:50:36.404Z,6.90
2018-04-11T18:53:05.389Z,6.90
2018-04-11T18:55:55.022Z,6.90
2018-04-11T18:58:25.842Z,7.00
2018-04-11T19:00:56.691Z,6.90
2018-04-11T19:03:29.887Z,7.00
2018-04-11T19:06:07.855Z,7.00
2018-04-11T19:08:37.784Z,6.90
2018-04-11T19:11:05.883Z,6.90
2018-04-11T19:13:34.090Z,6.90
2018-04-11T19:16:03.185Z,7.00
2018-04-11T19:18:32.203Z,6.90
2018-04-11T19:21:01.184Z,6.90
2018-04-11T19:23:30.256Z,6.90
2018-04-11T19:26:02.607Z,6.90
2018-04-11T19:28:43.821Z,7.00
2018-04-11T19:31:11.984Z,7.00
2018-04-11T19:33:45.189Z,7.00
2018-04-11T19:36:15.309Z,6.90
2018-04-11T19:38:45.327Z,6.90
2018-04-11T19:41:14.250Z,6.90
2018-04-11T19:43:47.936Z,6.90
2018-04-11T19:46:16.090Z,6.90
2018-04-11T19:48:44.231Z,6.90
2018-04-11T19:51:12.430Z,6.90
2018-04-11T19:53:44.829Z,6.90
2018-04-11T19:56:12.973Z,6.90
2018-04-11T19:58:41.123Z,6.80
2018-04-11T20:01:10.034Z,6.80
2018-04-11T20:03:39.900Z,6.80
2018-04-11T20:06:09.995Z,6.80
2018-04-11T20:08:50.798Z,6.80
2018-04-11T20:11:19.036Z,6.80
2018-04-11T20:13:49.318Z,6.80
2018-04-11T20:16:18.211Z,6.80
2018-04-11T20:19:01.138Z,6.80
2018-04-11T20:21:29.224Z,6.90
2018-04-11T20:23:59.640Z,6.90
2018-04-11T20:26:34.502Z,6.80
2018-04-11T20:29:03.659Z,6.80
2018-04-11T20:31:31.836Z,6.80
2018-04-11T20:34:19.135Z,6.70
2018-04-11T20:36:52.741Z,6.70
2018-04-11T20:39:29.322Z,6.70
2018-04-11T20:42:03.435Z,6.70
2018-04-11T20:44:31.853Z,6.60
2018-04-11T20:50:06.535Z,6.70
2018-04-11T20:52:39.712Z,6.60
2018-04-11T20:55:08.771Z,6.60
2018-04-11T20:57:39.006Z,6.50
2018-04-11T21:00:12.958Z,6.40
2018-04-11T21:02:41.164Z,6.40
2018-04-11T21:08:11.687Z,6.30
2018-04-11T21:10:39.920Z,6.30
2018-04-11T21:13:08.848Z,6.20
2018-04-11T21:15:40.507Z,6.20
2018-04-11T21:18:15.145Z,6.10
2018-04-11T21:20:44.576Z,6.20
2018-04-11T21:23:13.613Z,6.10
2018-04-11T21:25:43.671Z,6.00
2018-04-11T21:28:17.998Z,6.00
2018-04-11T21:30:54.755Z,5.90
2018-04-11T21:33:28.490Z,5.90
2018-04-11T21:35:56.700Z,5.90
2018-04-11T21:38:24.782Z,5.90
2018-04-11T21:41:01.280Z,5.90
2018-04-11T21:43:29.390Z,5.90
2018-04-11T21:46:07.971Z,5.80
2018-04-11T21:48:41.840Z,5.80
2018-04-11T21:51:12.628Z,5.70
2018-04-11T21:53:40.748Z,5.70
2018-04-11T21:56:08.879Z,5.70
2018-04-11T21:58:37.886Z,5.60
2018-04-11T22:01:21.206Z,5.50
2018-04-11T22:03:59.207Z,5.50
2018-04-11T22:06:28.297Z,5.50
2018-04-11T22:11:54.969Z,5.40
2018-04-11T22:14:47.159Z,5.30
2018-04-11T22:17:15.978Z,5.30
2018-04-11T22:19:57.370Z,5.20
2018-04-11T22:22:27.500Z,5.20
2018-04-11T22:25:08.188Z,5.10
2018-04-11T22:27:44.086Z,5.10
2018-04-11T22:30:19.987Z,5.10
2018-04-11T22:33:06.281Z,5.10
2018-04-11T22:38:35.110Z,5.00
2018-04-11T22:41:06.021Z,5.00
2018-04-11T22:43:34.212Z,5.00
2018-04-11T22:46:03.349Z,5.00
2018-04-11T22:48:33.372Z,4.90
2018-04-11T22:51:01.634Z,4.90
2018-04-11T22:53:29.786Z,4.90
2018-04-11T22:55:59.853Z,4.90
2018-04-11T22:58:31.513Z,4.80
2018-04-11T23:01:25.267Z,4.80
2018-04-11T23:03:53.422Z,4.80
2018-04-11T23:09:22.461Z,4.80
2018-04-11T23:11:50.568Z,4.70
2018-04-11T23:14:18.666Z,4.70
2018-04-11T23:16:48.782Z,4.70
2018-04-11T23:19:17.874Z,4.70
2018-04-11T23:21:46.995Z,4.60
2018-04-11T23:24:15.102Z,4.60
2018-04-11T23:26:45.390Z,4.60
2018-04-11T23:29:19.910Z,4.60
2018-04-11T23:31:48.014Z,4.50
2018-04-11T23:34:29.652Z,4.60
2018-04-11T23:37:06.239Z,4.60
2018-04-11T23:39:35.281Z,4.60
2018-04-11T23:42:13.978Z,4.50
2018-04-11T23:44:46.028Z,4.50
2018-04-11T23:47:21.794Z,4.50
2018-04-11T23:49:49.926Z,4.50
2018-04-11T23:52:35.304Z,4.50
2018-04-11T23:55:04.182Z,4.50
2018-04-11T23:57:32.272Z,4.50
